Time;durP1;ratioP1;P1;durP2;ratioP2;P2;SDS_P1;SDS_P2;PMS_P1;PMS_P2;Temp;Humidity;BMP_temperature;BMP_pressure;BME280_temperature;BME280_humidity;BME280_pressure;Samples;Min_cycle;Max_cycle;Signal;HPM_P1;HPM_P2
2024/01/19 00:00:15;;;;;;;7.40;3.47;;;;;;;10.39;65.31;93907.41;5047081;28;20059;-77
2024/01/19 00:02:41;;;;;;;8.00;3.88;;;;;;;10.37;65.49;93905.09;5049031;28;20104;-78
2024/01/19 00:05:07;;;;;;;6.28;3.63;;;;;;;10.34;65.61;93904.03;5047348;28;20108;-77
2024/01/19 00:07:32;;;;;;;7.53;3.88;;;;;;;10.29;65.71;93901.91;5048712;28;20219;-77
2024/01/19 00:09:57;;;;;;;5.78;3.30;;;;;;;10.31;65.72;93895.94;5047633;28;20103;-77
2024/01/19 00:12:23;;;;;;;7.50;4.13;;;;;;;10.30;65.99;93897.16;5047740;28;20048;-77
2024/01/19 00:14:48;;;;;;;5.45;3.65;;;;;;;10.28;65.99;93907.88;5047897;28;20029;-77
2024/01/19 00:17:14;;;;;;;5.88;3.88;;;;;;;10.19;66.55;93907.84;5047010;28;20087;-77
2024/01/19 00:19:39;;;;;;;6.93;4.32;;;;;;;10.21;66.89;93905.41;5048397;28;20414;-77
2024/01/19 00:22:04;;;;;;;6.10;3.97;;;;;;;10.16;67.05;93915.03;5046754;28;20432;-77
2024/01/19 00:24:30;;;;;;;6.45;4.20;;;;;;;10.09;67.24;93905.13;5048562;28;20103;-77
2024/01/19 00:26:55;;;;;;;8.05;4.38;;;;;;;10.12;67.17;93919.91;5046923;28;20025;-77
2024/01/19 00:29:22;;;;;;;7.30;4.30;;;;;;;10.12;67.38;93914.41;5047557;28;20094;-77
2024/01/19 00:31:48;;;;;;;8.27;4.22;;;;;;;10.09;67.82;93915.31;5047609;28;20021;-76
2024/01/19 00:34:14;;;;;;;8.60;5.28;;;;;;;10.04;67.96;93913.19;5046659;28;20227;-77
2024/01/19 00:36:40;;;;;;;8.18;5.47;;;;;;;10.15;67.68;93926.44;5048009;28;20017;-76
2024/01/19 00:39:05;;;;;;;8.15;5.28;;;;;;;10.14;67.70;93922.19;5046709;28;20025;-76
2024/01/19 00:41:31;;;;;;;10.23;5.78;;;;;;;10.07;67.85;93926.00;5048313;28;20021;-76
2024/01/19 00:43:57;;;;;;;8.35;5.32;;;;;;;10.00;68.68;93929.81;5046838;28;20052;-77
2024/01/19 00:46:22;;;;;;;8.25;4.95;;;;;;;9.95;69.22;93926.91;5048053;28;20119;-76
2024/01/19 00:48:48;;;;;;;8.88;6.00;;;;;;;9.95;69.49;93907.69;5047432;28;20089;-78
2024/01/19 00:51:13;;;;;;;8.00;5.35;;;;;;;9.94;69.52;93922.66;5045779;28;20460;-77
2024/01/19 00:53:39;;;;;;;8.43;5.70;;;;;;;9.94;69.52;93925.38;5047371;28;20096;-77
2024/01/19 00:56:06;;;;;;;8.88;5.20;;;;;;;9.77;70.03;93911.94;5046434;28;20040;-77
2024/01/19 00:58:32;;;;;;;8.70;5.38;;;;;;;9.89;69.92;93931.47;5048157;28;20033;-77
2024/01/19 01:00:57;;;;;;;5.90;4.97;;;;;;;9.88;69.92;93933.47;5045208;28;20445;-77
2024/01/19 01:03:24;;;;;;;6.97;5.00;;;;;;;9.90;69.98;93922.78;5048090;28;20111;-76
2024/01/19 01:05:56;;;;;;;8.40;5.43;;;;;;;9.94;70.00;93936.38;5046462;28;20108;-78
2024/01/19 01:08:22;;;;;;;9.02;5.18;;;;;;;9.91;70.20;93912.56;5046981;28;20086;-77
2024/01/19 01:10:48;;;;;;;9.25;5.30;;;;;;;9.91;69.98;93934.53;5047032;28;20035;-77
2024/01/19 01:13:14;;;;;;;7.55;5.63;;;;;;;9.88;69.72;93921.72;5044921;28;20036;-77
2024/01/19 01:15:40;;;;;;;6.68;4.80;;;;;;;9.83;70.08;93915.63;5047006;28;20040;-76
2024/01/19 01:18:06;;;;;;;7.45;5.25;;;;;;;9.87;70.17;93937.44;5045372;28;20105;-77
2024/01/19 01:20:31;;;;;;;7.40;5.38;;;;;;;9.85;70.10;93926.88;5047614;28;20462;-76
2024/01/19 01:22:56;;;;;;;6.55;5.00;;;;;;;9.81;70.58;93945.50;5045972;28;20124;-77
2024/01/19 01:25:22;;;;;;;6.82;5.15;;;;;;;9.78;70.61;93929.94;5047025;28;20025;-77
2024/01/19 01:27:47;;;;;;;8.90;5.55;;;;;;;9.83;70.40;93928.59;5046752;28;20025;-76
2024/01/19 01:30:13;;;;;;;7.35;5.40;;;;;;;9.81;70.43;93931.78;5045613;28;20025;-77
2024/01/19 01:32:38;;;;;;;7.95;5.38;;;;;;;9.82;70.61;93930.56;5046874;28;20033;-77
2024/01/19 01:35:04;;;;;;;8.07;5.38;;;;;;;9.84;70.37;93936.34;5045590;28;20025;-76
2024/01/19 01:37:30;;;;;;;9.13;5.80;;;;;;;9.81;70.42;93934.53;5047210;28;20466;-76
2024/01/19 01:39:55;;;;;;;8.00;5.22;;;;;;;9.80;70.52;93934.97;5045027;28;20605;-77
2024/01/19 01:42:21;;;;;;;7.65;5.78;;;;;;;9.74;70.69;93934.81;5047305;28;20056;-76
2024/01/19 01:44:47;;;;;;;7.72;5.30;;;;;;;9.73;70.73;93922.31;5045617;28;20028;-77
2024/01/19 01:47:13;;;;;;;8.80;5.40;;;;;;;9.80;70.49;93924.00;5046467;28;20028;-76
2024/01/19 01:49:38;;;;;;;7.10;5.10;;;;;;;9.81;70.45;93934.53;5046338;28;20408;-77
2024/01/19 01:52:04;;;;;;;8.07;5.70;;;;;;;9.80;70.51;93934.97;5045235;28;20017;-77
2024/01/19 01:54:30;;;;;;;7.03;5.32;;;;;;;9.72;70.71;93931.75;5045199;28;20041;-77
2024/01/19 01:56:56;;;;;;;9.27;5.43;;;;;;;9.69;70.60;93934.66;5043350;28;20032;-77
2024/01/19 01:59:21;;;;;;;7.60;5.40;;;;;;;9.72;70.58;93933.75;5047267;28;20100;-76
2024/01/19 02:01:47;;;;;;;10.00;5.63;;;;;;;9.72;70.56;93931.00;5044658;28;20618;-76
2024/01/19 02:04:13;;;;;;;7.35;4.82;;;;;;;9.72;70.48;93937.25;5046222;28;20020;-76
2024/01/19 02:06:41;;;;;;;7.63;5.28;;;;;;;9.71;70.53;93935.72;5044463;28;20025;-76
2024/01/19 02:09:08;;;;;;;9.10;5.25;;;;;;;9.71;70.45;93945.94;5045395;28;20025;-76
2024/01/19 02:11:33;;;;;;;8.25;5.03;;;;;;;9.66;70.60;93939.06;5045149;28;20120;-76
2024/01/19 02:13:59;;;;;;;6.43;4.90;;;;;;;9.70;70.44;93936.19;5043025;28;20096;-77
2024/01/19 02:16:24;;;;;;;7.10;5.50;;;;;;;9.70;70.24;93936.19;5046464;28;20053;-76
2024/01/19 02:18:49;;;;;;;8.20;5.25;;;;;;;9.67;70.31;93934.34;5044398;28;20637;-77
2024/01/19 02:21:15;;;;;;;9.07;5.82;;;;;;;9.65;70.23;93926.59;5046482;28;20108;-76
2024/01/19 02:23:54;;;;;;;6.25;4.97;;;;;;;9.67;70.04;93939.84;5045197;28;20437;-77
2024/01/19 02:26:21;;;;;;;7.32;5.28;;;;;;;9.62;70.16;93937.69;5043604;28;20074;-77
2024/01/19 02:28:47;;;;;;;8.13;5.30;;;;;;;9.55;70.34;93933.25;5043952;28;20463;-77
2024/01/19 02:31:12;;;;;;;8.23;5.47;;;;;;;9.59;70.10;93947.59;5044305;28;20025;-77
2024/01/19 02:33:37;;;;;;;6.40;5.40;;;;;;;9.51;70.37;93949.09;5045965;28;20024;-76
2024/01/19 02:36:03;;;;;;;8.60;5.80;;;;;;;9.51;70.06;93949.09;5044144;28;20060;-77
2024/01/19 02:38:28;;;;;;;10.95;7.68;;;;;;;9.54;69.79;93954.44;5046126;28;20070;-76
2024/01/19 02:40:54;;;;;;;12.48;7.28;;;;;;;9.47;69.90;93968.47;5044316;28;20052;-77
2024/01/19 02:43:19;;;;;;;13.02;8.05;;;;;;;9.41;70.01;93970.28;5043872;28;20028;-77
2024/01/19 02:45:44;;;;;;;12.32;8.25;;;;;;;9.45;69.72;93967.38;5044977;28;20039;-77
2024/01/19 02:48:12;;;;;;;12.10;8.52;;;;;;;9.38;69.85;93970.41;5044652;28;20025;-77
2024/01/19 02:50:38;;;;;;;9.25;7.05;;;;;;;9.38;70.44;93968.41;5045692;28;20017;-77
2024/01/19 02:53:03;;;;;;;9.43;6.63;;;;;;;9.37;69.91;93972.38;5043702;28;20475;-77
2024/01/19 02:55:29;;;;;;;10.10;7.38;;;;;;;9.28;69.98;93970.34;5045747;28;20032;-77
2024/01/19 02:57:54;;;;;;;10.50;7.63;;;;;;;9.28;70.13;93959.38;5043933;28;20044;-77
2024/01/19 03:00:19;;;;;;;10.43;7.57;;;;;;;9.24;70.27;93974.47;5045220;28;20017;-77
2024/01/19 03:02:45;;;;;;;10.13;7.47;;;;;;;9.23;70.05;93981.16;5044652;28;20047;-77
2024/01/19 03:05:10;;;;;;;7.63;6.43;;;;;;;9.23;69.73;93970.97;5044472;28;20052;-77
2024/01/19 03:07:35;;;;;;;9.18;6.75;;;;;;;9.14;69.89;93970.16;5045211;28;20031;-77
2024/01/19 03:12:44;;;;;;;10.75;6.93;;;;;;;9.05;70.26;93982.59;5045735;28;20094;-77
2024/01/19 03:15:10;;;;;;;9.35;6.75;;;;;;;9.04;70.10;93967.38;5044092;28;20036;-77
2024/01/19 03:17:35;;;;;;;9.90;6.88;;;;;;;9.03;70.28;93970.56;5044807;28;20131;-77
2024/01/19 03:20:00;;;;;;;9.43;6.38;;;;;;;9.03;70.15;93965.09;5044434;28;20025;-77
2024/01/19 03:22:29;;;;;;;9.48;6.70;;;;;;;8.96;70.71;93977.09;5043768;28;20029;-77
2024/01/19 03:24:54;;;;;;;10.68;6.18;;;;;;;8.97;70.54;93978.63;5044941;28;20021;-77
2024/01/19 03:27:20;;;;;;;9.40;5.75;;;;;;;8.87;70.56;93965.31;5043768;28;20454;-77
2024/01/19 03:29:47;;;;;;;9.20;6.57;;;;;;;8.91;70.34;93980.41;5044735;28;20101;-77
2024/01/19 03:32:12;;;;;;;8.32;5.70;;;;;;;8.87;70.61;93979.00;5044018;28;20025;-77
2024/01/19 03:34:38;;;;;;;9.88;6.55;;;;;;;8.89;70.62;93987.53;5045216;28;20105;-77
2024/01/19 03:37:03;;;;;;;7.95;5.97;;;;;;;8.86;70.43;93993.94;5043876;28;20553;-77
2024/01/19 03:39:30;;;;;;;8.68;5.80;;;;;;;8.83;70.46;93986.59;5044481;28;20025;-77
2024/01/19 03:41:56;;;;;;;6.72;5.10;;;;;;;8.77;70.38;93981.72;5044377;28;20025;-76
2024/01/19 03:44:23;;;;;;;5.95;4.40;;;;;;;8.77;70.23;93978.97;5043683;28;20108;-76
2024/01/19 03:46:49;;;;;;;7.80;4.85;;;;;;;8.71;70.14;93978.00;5044720;28;20442;-76
2024/01/19 03:49:14;;;;;;;6.80;4.50;;;;;;;8.79;70.22;93973.03;5043684;28;20021;-76
2024/01/19 03:51:59;;;;;;;7.28;4.85;;;;;;;8.77;70.18;93984.47;5045789;28;20029;-76
2024/01/19 03:54:25;;;;;;;4.97;4.15;;;;;;;8.73;70.12;93981.06;5044026;28;20126;-76
2024/01/19 03:56:50;;;;;;;4.93;4.07;;;;;;;8.74;70.01;93992.81;5044087;28;20071;-76
2024/01/19 03:59:16;;;;;;;5.65;3.78;;;;;;;8.73;70.04;93983.81;5044722;28;20052;-76
2024/01/19 04:01:41;;;;;;;6.55;5.20;;;;;;;8.76;70.04;93988.38;5043683;28;20041;-76
2024/01/19 04:04:06;;;;;;;8.65;4.75;;;;;;;8.79;69.90;93994.97;5044794;28;20048;-76
2024/01/19 04:06:32;;;;;;;6.80;4.60;;;;;;;8.80;69.61;93999.22;5042944;28;20488;-76
2024/01/19 04:08:57;;;;;;;5.30;4.20;;;;;;;8.84;69.60;93999.88;5044820;28;20036;-76
2024/01/19 04:11:23;;;;;;;7.57;4.50;;;;;;;8.81;69.60;94000.75;5043387;28;20089;-77
2024/01/19 04:13:48;;;;;;;5.85;4.07;;;;;;;8.83;69.58;93992.06;5044370;28;20021;-77
2024/01/19 04:16:13;;;;;;;6.60;4.40;;;;;;;8.91;69.54;94004.31;5043498;28;20053;-78
2024/01/19 04:18:39;;;;;;;7.05;4.30;;;;;;;8.84;69.45;94008.09;5043537;28;20021;-78
2024/01/19 04:21:04;;;;;;;8.15;4.88;;;;;;;8.86;69.45;94005.66;5044154;28;20519;-76
2024/01/19 04:23:29;;;;;;;9.25;5.70;;;;;;;8.82;69.66;93996.03;5042878;28;20017;-76
2024/01/19 04:25:55;;;;;;;7.38;5.53;;;;;;;8.82;69.74;94001.50;5044271;28;20029;-78
2024/01/19 04:28:20;;;;;;;8.23;5.38;;;;;;;8.76;69.94;93995.84;5042924;28;20496;-76
2024/01/19 04:30:45;;;;;;;8.00;5.00;;;;;;;8.71;70.07;94005.41;5044258;28;20029;-78
2024/01/19 04:33:11;;;;;;;8.73;6.13;;;;;;;8.79;70.13;94011.41;5042853;28;20029;-78
2024/01/19 04:35:36;;;;;;;7.93;5.15;;;;;;;8.74;69.86;94010.00;5045700;28;20056;-78
2024/01/19 04:38:02;;;;;;;8.57;5.50;;;;;;;8.73;70.12;94003.00;5047521;28;20021;-78
2024/01/19 04:40:27;;;;;;;8.55;5.88;;;;;;;8.75;70.17;94002.53;5045297;28;20487;-77
2024/01/19 04:42:53;;;;;;;8.35;5.53;;;;;;;8.81;70.11;94000.75;5047542;28;20494;-76
2024/01/19 04:45:18;;;;;;;10.60;6.78;;;;;;;8.80;69.94;94004.72;5046623;28;20109;-79
2024/01/19 04:47:43;;;;;;;10.98;8.63;;;;;;;8.74;69.93;94010.00;5048188;28;20029;-78
2024/01/19 04:50:09;;;;;;;8.77;6.68;;;;;;;8.76;69.89;94004.06;5045996;28;20039;-78
2024/01/19 04:52:34;;;;;;;9.88;6.65;;;;;;;8.78;69.52;93996.94;5047583;28;20419;-78
2024/01/19 04:55:00;;;;;;;7.45;5.78;;;;;;;8.74;69.59;94009.25;5046629;28;20032;-79
2024/01/19 04:57:25;;;;;;;7.07;5.38;;;;;;;8.73;69.50;94016.69;5046795;28;20463;-79
2024/01/19 04:59:50;;;;;;;9.98;6.20;;;;;;;8.74;69.50;94012.75;5041680;28;20060;-79
2024/01/19 05:02:16;;;;;;;7.00;5.40;;;;;;;8.72;69.66;94008.94;5035569;28;20091;-79
2024/01/19 05:04:41;;;;;;;8.48;5.90;;;;;;;8.81;69.24;94016.44;5027519;28;20104;-77
2024/01/19 05:07:07;;;;;;;12.35;8.95;;;;;;;8.74;69.33;94018.22;5042122;28;20040;-78
2024/01/19 05:09:32;;;;;;;10.63;5.82;;;;;;;8.68;69.41;94016.50;5047511;28;20104;-78
2024/01/19 05:11:58;;;;;;;8.52;5.65;;;;;;;8.65;69.49;94011.91;5044162;28;20510;-79
2024/01/19 05:14:23;;;;;;;10.15;6.50;;;;;;;8.69;69.49;94012.56;5045872;28;20473;-78
2024/01/19 05:16:48;;;;;;;11.02;6.47;;;;;;;8.71;69.54;94032.03;5046676;28;20049;-78
2024/01/19 05:19:14;;;;;;;11.60;9.23;;;;;;;8.71;69.45;94019.09;5044341;28;20031;-79
2024/01/19 05:21:39;;;;;;;10.90;7.68;;;;;;;8.73;69.16;94022.19;5046939;28;20040;-77
2024/01/19 05:24:05;;;;;;;10.40;6.85;;;;;;;8.71;68.98;94023.81;5045159;28;20028;-77
2024/01/19 05:26:30;;;;;;;8.90;5.47;;;;;;;8.77;68.53;94031.03;5047477;28;20066;-78
2024/01/19 05:28:56;;;;;;;10.20;5.38;;;;;;;8.78;68.24;94032.56;5044906;28;20108;-77
2024/01/19 05:31:21;;;;;;;8.68;5.25;;;;;;;8.76;68.28;94029.50;5046739;28;20031;-78
2024/01/19 05:33:47;;;;;;;7.63;4.35;;;;;;;8.82;67.93;94035.16;5045952;28;20029;-78
2024/01/19 05:36:12;;;;;;;7.53;4.43;;;;;;;8.73;67.89;94041.38;5043965;28;20383;-78
2024/01/19 05:38:38;;;;;;;7.45;4.95;;;;;;;8.72;68.08;94030.84;5046659;28;20053;-78
2024/01/19 05:41:03;;;;;;;7.28;3.95;;;;;;;8.62;68.01;94030.03;5044974;28;20071;-78
2024/01/19 05:43:29;;;;;;;7.45;4.90;;;;;;;8.60;68.07;94032.44;5046601;28;20024;-78
2024/01/19 05:45:54;;;;;;;6.70;4.32;;;;;;;8.61;68.28;94030.47;5044246;28;20035;-79
2024/01/19 05:48:20;;;;;;;6.10;4.13;;;;;;;8.57;68.39;94036.06;5046666;28;20453;-76
2024/01/19 05:50:45;;;;;;;8.23;3.83;;;;;;;8.34;69.53;94048.19;5045138;28;20104;-77
2024/01/19 05:53:11;;;;;;;10.32;3.55;;;;;;;8.03;70.13;94033.59;5045810;28;20303;-79
2024/01/19 05:55:36;;;;;;;10.27;4.60;;;;;;;7.59;71.45;94030.72;5046378;28;20029;-84
2024/01/19 05:58:04;;;;;;;6.82;4.50;;;;;;;7.28;71.60;94036.72;5045913;28;20024;-84
2024/01/19 06:00:30;;;;;;;8.18;4.88;;;;;;;6.84;72.93;94043.91;5047932;28;20036;-84
2024/01/19 06:02:55;;;;;;;9.88;6.20;;;;;;;6.42;74.74;94034.94;5043196;28;20020;-77
2024/01/19 06:05:21;;;;;;;34.70;18.10;;;;;;;6.38;75.09;94035.81;5046225;28;20029;-78
2024/01/19 06:07:46;;;;;;;39.20;20.67;;;;;;;6.72;79.89;94039.19;5044647;28;20041;-77
2024/01/19 06:10:12;;;;;;;39.65;20.95;;;;;;;6.15;75.77;94048.94;5045945;28;20440;-77
2024/01/19 06:12:37;;;;;;;36.30;22.70;;;;;;;6.34;77.12;94050.75;5045217;28;20033;-76
2024/01/19 06:15:03;;;;;;;34.10;22.95;;;;;;;6.42;77.74;94040.41;5044862;28;20399;-78
2024/01/19 06:17:29;;;;;;;34.75;18.23;;;;;;;6.25;76.45;94053.31;5043887;28;20056;-77
2024/01/19 06:19:54;;;;;;;32.33;20.15;;;;;;;6.32;77.08;94051.19;5041295;28;20032;-78
2024/01/19 06:22:20;;;;;;;33.70;19.38;;;;;;;6.43;77.42;94050.91;5044772;28;20051;-76
2024/01/19 06:24:50;;;;;;;32.63;19.17;;;;;;;6.13;76.73;94058.28;5041791;28;20056;-76
2024/01/19 06:27:16;;;;;;;29.30;18.27;;;;;;;6.28;77.79;94068.84;5045503;28;20091;-76
2024/01/19 06:29:41;;;;;;;18.67;13.63;;;;;;;6.26;76.21;94074.75;5044876;28;20020;-76
2024/01/19 06:32:07;;;;;;;27.73;17.95;;;;;;;6.17;77.55;94076.53;5044740;28;20469;-76
2024/01/19 06:34:32;;;;;;;28.27;19.65;;;;;;;6.22;79.47;94081.47;5045369;28;20104;-78
2024/01/19 06:36:58;;;;;;;21.13;14.43;;;;;;;6.05;77.14;94081.50;5044217;28;20541;-77
2024/01/19 06:39:23;;;;;;;18.55;15.02;;;;;;;6.12;78.48;94075.84;5045507;28;20057;-77
2024/01/19 06:41:48;;;;;;;22.65;17.63;;;;;;;6.20;79.28;94094.81;5044275;28;20025;-76
2024/01/19 06:44:14;;;;;;;17.88;12.55;;;;;;;6.06;77.28;94101.38;5045540;28;20099;-76
2024/01/19 06:46:46;;;;;;;22.63;14.68;;;;;;;6.09;78.04;94103.25;5044109;28;20025;-76
2024/01/19 06:49:12;;;;;;;27.05;18.13;;;;;;;6.20;78.67;94103.75;5044926;28;20035;-78
2024/01/19 06:51:37;;;;;;;24.50;14.60;;;;;;;6.23;77.20;94102.13;5044611;28;20032;-76
2024/01/19 06:54:03;;;;;;;21.38;14.98;;;;;;;6.15;77.37;94098.03;5044101;28;20033;-77
2024/01/19 06:56:28;;;;;;;27.88;17.95;;;;;;;6.29;78.29;94112.09;5045147;28;20060;-77
2024/01/19 06:58:54;;;;;;;18.70;14.07;;;;;;;6.24;76.28;94109.88;5043109;28;20069;-78
2024/01/19 07:01:20;;;;;;;21.02;15.65;;;;;;;6.26;77.58;94106.72;5045186;28;20021;-78
2024/01/19 07:03:45;;;;;;;22.67;17.10;;;;;;;6.42;78.72;94103.94;5040577;28;20099;-77
2024/01/19 07:06:10;;;;;;;18.60;12.40;;;;;;;6.30;76.82;94119.06;5027035;28;20029;-77
2024/01/19 07:08:36;;;;;;;18.83;13.50;;;;;;;6.36;78.38;94117.34;5029685;28;20017;-77
2024/01/19 07:11:01;;;;;;;19.40;13.70;;;;;;;6.48;78.81;94112.38;5044863;28;20033;-78
2024/01/19 07:13:27;;;;;;;12.98;9.85;;;;;;;6.45;76.75;94110.53;5045263;28;20033;-77
2024/01/19 07:15:52;;;;;;;18.98;13.68;;;;;;;6.45;78.57;94124.94;5040804;28;20663;-77
2024/01/19 07:18:17;;;;;;;19.63;12.93;;;;;;;6.62;79.48;94117.50;5036881;28;20116;-78
2024/01/19 07:20:43;;;;;;;13.00;9.05;;;;;;;6.37;77.11;94096.31;5023951;28;20056;-77
2024/01/19 07:23:08;;;;;;;14.45;11.50;;;;;;;6.61;78.55;94121.41;5032039;28;20078;-77
2024/01/19 07:25:34;;;;;;;15.43;9.77;;;;;;;6.77;79.08;94112.41;5043900;28;20056;-77
2024/01/19 07:27:59;;;;;;;13.63;8.65;;;;;;;6.95;76.37;94096.28;5041359;28;20454;-77
2024/01/19 07:30:24;;;;;;;16.77;10.48;;;;;;;6.70;78.10;94107.88;5044508;28;20070;-77
2024/01/19 07:32:50;;;;;;;14.65;10.48;;;;;;;6.89;78.09;94098.03;5034049;28;20033;-78
2024/01/19 07:35:15;;;;;;;12.00;8.80;;;;;;;7.09;76.43;94112.28;5036929;28;20028;-77
2024/01/19 07:37:40;;;;;;;17.23;11.02;;;;;;;6.88;78.34;94110.13;5025271;28;20080;-77
2024/01/19 07:40:07;;;;;;;14.65;10.98;;;;;;;7.05;78.38;94122.53;5043360;28;20032;-77
2024/01/19 07:42:32;;;;;;;18.40;12.70;;;;;;;7.38;81.37;94136.06;5041939;28;20455;-76
2024/01/19 07:44:57;;;;;;;16.58;9.30;;;;;;;6.93;76.59;94124.03;5044437;28;20061;-76
2024/01/19 07:47:24;;;;;;;19.58;13.93;;;;;;;7.09;78.02;94130.63;5034258;28;20034;-76
2024/01/19 07:49:49;;;;;;;23.77;14.07;;;;;;;7.27;78.54;94135.59;5035901;28;20069;-76
2024/01/19 07:52:15;;;;;;;19.33;9.98;;;;;;;7.12;74.53;94124.31;5039686;28;20068;-77
2024/01/19 07:54:40;;;;;;;19.13;13.60;;;;;;;7.15;77.67;94128.91;5041825;28;20028;-77
2024/01/19 07:57:05;;;;;;;16.08;12.50;;;;;;;7.34;77.98;94121.72;5024645;28;20068;-76
2024/01/19 07:59:31;;;;;;;15.13;9.77;;;;;;;7.34;75.54;94127.19;5023574;28;20597;-77
2024/01/19 08:01:56;;;;;;;14.68;11.35;;;;;;;7.29;77.51;94119.53;5025302;28;20063;-76
2024/01/19 08:04:22;;;;;;;16.13;11.65;;;;;;;7.54;77.62;94114.09;5037918;28;20204;-77
2024/01/19 08:06:47;;;;;;;11.95;8.38;;;;;;;7.64;75.39;94118.47;5033360;28;20426;-77
2024/01/19 08:09:13;;;;;;;16.45;12.00;;;;;;;7.55;76.62;94120.31;5032469;28;20063;-75
2024/01/19 08:11:41;;;;;;;16.48;12.00;;;;;;;7.78;76.56;94124.72;5047869;28;20033;-77
2024/01/19 08:14:07;;;;;;;14.80;11.35;;;;;;;7.92;73.37;94127.00;5037638;28;20063;-75
2024/01/19 08:16:32;;;;;;;16.08;12.90;;;;;;;7.64;76.25;94128.66;5026885;28;20517;-75
2024/01/19 08:18:57;;;;;;;21.48;13.48;;;;;;;7.99;76.13;94137.72;5028455;28;20033;-77
2024/01/19 08:21:23;;;;;;;19.35;14.77;;;;;;;8.24;75.85;94137.69;5027099;28;20025;-75
2024/01/19 08:23:49;;;;;;;23.77;15.02;;;;;;;8.01;73.28;94145.50;5028911;28;20068;-75
2024/01/19 08:26:14;;;;;;;26.13;19.00;;;;;;;8.23;74.69;94152.59;5037140;28;20029;-76
2024/01/19 08:28:40;;;;;;;28.38;17.77;;;;;;;8.51;75.17;94156.41;5048136;28;20066;-75
2024/01/19 08:31:11;;;;;;;22.10;13.38;;;;;;;8.39;69.86;94142.75;5047562;28;20492;-77
2024/01/19 08:33:36;;;;;;;26.40;17.65;;;;;;;8.56;73.33;94152.34;5046755;28;20032;-75
2024/01/19 08:36:02;;;;;;;21.17;13.90;;;;;;;9.73;71.43;94165.81;5047781;28;20087;-76
2024/01/19 08:38:27;;;;;;;14.32;8.85;;;;;;;10.23;67.43;94155.66;5046957;28;20032;-76
2024/01/19 08:40:53;;;;;;;12.65;9.35;;;;;;;11.66;64.40;94145.63;5048035;28;20033;-76
2024/01/19 08:43:18;;;;;;;12.45;9.48;;;;;;;13.17;60.42;94150.97;5052083;28;20051;-77
2024/01/19 08:45:43;;;;;;;10.48;7.00;;;;;;;14.39;56.75;94152.78;5055318;28;20017;-76
2024/01/19 08:48:09;;;;;;;8.27;6.85;;;;;;;15.18;53.12;94154.63;5047024;28;20068;-77
2024/01/19 08:50:34;;;;;;;7.05;5.68;;;;;;;16.48;49.22;94155.34;5047167;28;20130;-76
2024/01/19 08:53:00;;;;;;;8.10;5.57;;;;;;;16.80;48.28;94152.53;5047521;28;20049;-76
2024/01/19 08:55:25;;;;;;;10.43;6.60;;;;;;;17.02;47.57;94160.22;5046348;28;20021;-77
2024/01/19 08:57:50;;;;;;;10.13;6.70;;;;;;;17.01;46.97;94162.25;5055499;28;20059;-77
2024/01/19 09:00:16;;;;;;;10.02;6.75;;;;;;;16.76;47.29;94163.13;5065930;28;20025;-76
2024/01/19 09:02:43;;;;;;;10.40;6.85;;;;;;;16.85;46.92;94149.78;5044130;28;20075;-84
2024/01/19 09:05:11;;;;;;;10.00;6.95;;;;;;;17.30;46.21;94152.03;5041426;28;20029;-77
2024/01/19 09:07:36;;;;;;;10.18;7.30;;;;;;;18.27;44.23;94146.91;5030907;28;20056;-77
2024/01/19 09:10:02;;;;;;;10.63;5.88;;;;;;;18.85;42.59;94149.88;5030691;28;20468;-77
2024/01/19 09:12:28;;;;;;;9.65;7.53;;;;;;;18.84;42.13;94156.72;5041681;28;20083;-76
2024/01/19 09:14:54;;;;;;;11.43;6.95;;;;;;;18.63;42.33;94158.25;5047375;28;20672;-78
2024/01/19 09:17:19;;;;;;;10.52;6.32;;;;;;;18.92;41.67;94143.03;5036983;28;20045;-77
2024/01/19 09:19:45;;;;;;;10.43;6.90;;;;;;;18.54;42.25;94142.59;5027516;28;20083;-76
2024/01/19 09:22:10;;;;;;;9.35;6.95;;;;;;;18.41;42.76;94139.56;5026424;28;20124;-78
2024/01/19 09:24:35;;;;;;;12.57;7.97;;;;;;;18.11;43.29;94133.75;5035659;28;20376;-78
2024/01/19 09:27:01;;;;;;;13.70;8.55;;;;;;;18.01;43.98;94130.47;5031665;28;20116;-79
2024/01/19 09:29:26;;;;;;;11.55;8.15;;;;;;;19.07;42.55;94126.78;5028368;28;20052;-80
2024/01/19 09:31:51;;;;;;;11.70;8.13;;;;;;;20.61;39.05;94129.66;5043150;28;20025;-78
2024/01/19 09:34:17;;;;;;;10.27;7.85;;;;;;;21.87;36.51;94115.97;5037149;28;20040;-76
2024/01/19 09:36:42;;;;;;;12.93;7.28;;;;;;;22.43;36.08;94129.13;5059413;28;20029;-76
2024/01/19 09:39:08;;;;;;;11.52;8.60;;;;;;;24.10;33.07;94115.16;5045495;28;20029;-76
2024/01/19 09:41:43;;;;;;;11.30;8.20;;;;;;;24.87;32.43;94111.72;5057047;28;20020;-80
2024/01/19 09:44:10;;;;;;;11.40;8.93;;;;;;;24.45;32.29;94113.84;5058386;28;20033;-82
2024/01/19 09:47:05;;;;;;;12.55;8.43;;;;;;;23.57;33.28;94115.28;5033169;28;20068;-85
2024/01/19 09:49:55;;;;;;;13.50;9.90;;;;;;;22.79;34.18;94120.34;5041812;28;20025;-82
2024/01/19 09:52:26;;;;;;;14.57;10.88;;;;;;;21.88;36.02;94117.47;5037420;28;20492;-81
2024/01/19 09:54:51;;;;;;;15.82;10.25;;;;;;;21.38;36.92;94120.94;5030139;28;20029;-86
2024/01/19 09:57:17;;;;;;;14.48;10.25;;;;;;;20.92;37.93;94126.28;5041484;28;20364;-81
2024/01/19 09:59:43;;;;;;;13.70;9.90;;;;;;;20.53;38.76;94118.31;5034447;28;20033;-79
2024/01/19 10:02:09;;;;;;;16.08;11.35;;;;;;;20.26;39.02;94116.50;5036323;28;20024;-79
2024/01/19 10:04:35;;;;;;;18.58;11.95;;;;;;;19.91;39.72;94115.22;5037319;28;20061;-82
2024/01/19 10:07:01;;;;;;;26.52;14.20;;;;;;;19.59;40.56;94095.41;5038617;28;20109;-82
2024/01/19 10:09:26;;;;;;;24.20;13.60;;;;;;;19.29;41.32;94086.94;5037375;28;20032;-81
2024/01/19 10:11:53;;;;;;;22.85;13.10;;;;;;;19.09;41.87;94088.78;5045242;28;20021;-80
2024/01/19 10:14:20;;;;;;;19.75;12.02;;;;;;;19.01;42.03;94081.50;5026156;28;20033;-80
2024/01/19 10:16:48;;;;;;;16.45;12.20;;;;;;;18.84;42.18;94085.09;5025536;28;20048;-79
2024/01/19 10:19:14;;;;;;;18.52;13.30;;;;;;;18.67;42.83;94078.81;5025950;28;20326;-81
2024/01/19 10:21:39;;;;;;;19.27;12.48;;;;;;;19.22;41.72;94068.75;5025203;28;20527;-79
2024/01/19 10:24:15;;;;;;;15.05;11.88;;;;;;;21.54;37.83;94074.47;5026184;28;20113;-79
2024/01/19 10:26:48;;;;;;;13.15;10.25;;;;;;;23.55;33.45;94070.94;5024665;28;20025;-82
2024/01/19 10:29:15;;;;;;;15.27;10.18;;;;;;;25.03;31.23;94064.03;5024536;28;20025;-79
2024/01/19 10:31:42;;;;;;;10.75;6.15;;;;;;;26.38;28.51;94066.41;5026884;28;20175;-78
2024/01/19 10:34:24;;;;;;;3.33;1.75;;;;;;;27.38;24.94;94058.63;5039486;28;20040;-82
2024/01/19 10:36:50;;;;;;;7.15;1.73;;;;;;;28.17;23.49;94062.78;5034511;28;20130;-78
2024/01/19 10:39:23;;;;;;;3.33;1.30;;;;;;;28.24;22.52;94056.34;5041723;28;20058;-78
2024/01/19 10:41:50;;;;;;;4.15;1.77;;;;;;;28.61;22.24;94061.56;5037255;28;20044;-81
2024/01/19 10:44:21;;;;;;;4.20;1.30;;;;;;;29.31;21.76;94046.22;5024512;28;20082;-86
2024/01/19 10:46:49;;;;;;;3.92;1.23;;;;;;;30.47;20.78;94035.66;5037115;28;20415;-83
2024/01/19 10:49:17;;;;;;;4.55;1.58;;;;;;;31.38;20.14;94029.75;5043565;28;20021;-82
2024/01/19 10:51:44;;;;;;;5.30;1.20;;;;;;;30.18;20.47;94014.94;5044742;28;20099;-80
2024/01/19 10:54:17;;;;;;;3.28;0.90;;;;;;;28.42;21.61;94028.16;5043582;28;20641;-81
2024/01/19 10:56:46;;;;;;;2.95;1.20;;;;;;;28.44;21.54;94017.78;5042065;28;20643;-79
2024/01/19 10:59:13;;;;;;;4.63;0.98;;;;;;;29.16;21.12;94015.25;5043606;28;20428;-80
2024/01/19 11:01:38;;;;;;;3.50;1.40;;;;;;;29.95;20.21;94027.31;5044652;28;20051;-80
2024/01/19 11:04:07;;;;;;;4.45;1.45;;;;;;;31.54;19.20;94024.50;5043409;28;20509;-81
2024/01/19 11:06:37;;;;;;;5.25;1.45;;;;;;;31.65;19.01;94015.38;5044020;28;20060;-79
2024/01/19 11:09:05;;;;;;;4.10;1.40;;;;;;;30.79;19.60;94005.44;5042231;28;20025;-79
2024/01/19 11:11:34;;;;;;;7.15;1.98;;;;;;;31.35;19.26;94017.50;5042284;28;20080;-80
2024/01/19 11:14:02;;;;;;;3.97;1.27;;;;;;;28.26;22.26;94011.28;5024098;28;20040;-78
2024/01/19 11:16:28;;;;;;;5.07;1.13;;;;;;;27.14;23.21;94020.53;5024981;28;20069;-78
2024/01/19 11:18:54;;;;;;;5.07;1.20;;;;;;;24.67;26.20;94011.38;5024086;28;20456;-80
2024/01/19 11:21:20;;;;;;;3.97;1.00;;;;;;;25.43;25.38;94008.19;5030904;28;20072;-79
2024/01/19 11:23:46;;;;;;;4.00;1.10;;;;;;;25.36;25.48;94011.75;5041615;28;20072;-78
2024/01/19 11:26:48;;;;;;;6.78;2.25;;;;;;;25.70;25.69;94000.22;5032155;28;20041;-79
2024/01/19 11:29:25;;;;;;;3.97;1.48;;;;;;;26.81;24.34;93994.25;5027848;28;20076;-80
2024/01/19 11:31:51;;;;;;;5.47;1.70;;;;;;;27.86;23.36;93997.25;5040963;28;20064;-79